Time;durP1;ratioP1;P1;durP2;ratioP2;P2;SDS_P1;SDS_P2;PMS_P1;PMS_P2;Temp;Humidity;BMP_temperature;BMP_pressure;BME280_temperature;BME280_humidity;BME280_pressure;Samples;Min_cycle;Max_cycle;Signal;HPM_P1;HPM_P2
2021/03/26 00:00:37;;;;;;;27.73;18.73;;;;;;;;;;5037207;28;20220;-77
2021/03/26 00:03:07;;;;;;;27.93;18.17;;;;;;;;;;5036384;28;20280;-76
2021/03/26 00:05:33;;;;;;;28.23;18.33;;;;;;;;;;5053115;28;20220;-77
2021/03/26 00:07:59;;;;;;;24.77;17.87;;;;;;;;;;5036809;28;20263;-76
2021/03/26 00:10:25;;;;;;;27.80;18.23;;;;;;;;;;5053205;28;20542;-76
2021/03/26 00:12:52;;;;;;;25.33;18.00;;;;;;;;;;5036401;28;20210;-77
2021/03/26 00:15:18;;;;;;;30.37;18.50;;;;;;;;;;5052886;28;20190;-77
2021/03/26 00:17:43;;;;;;;28.07;18.53;;;;;;;;;;5045530;28;20242;-77
2021/03/26 00:20:10;;;;;;;28.43;19.07;;;;;;;;;;5056755;28;20224;-76
2021/03/26 00:22:36;;;;;;;28.17;18.23;;;;;;;;;;5073363;28;20180;-77
2021/03/26 00:25:02;;;;;;;29.53;18.50;;;;;;;;;;5073114;28;20198;-76
2021/03/26 00:27:28;;;;;;;29.13;19.00;;;;;;;;;;5072857;28;20213;-77
2021/03/26 00:29:54;;;;;;;26.37;18.77;;;;;;;;;;5073085;28;20665;-77
2021/03/26 00:32:20;;;;;;;26.87;18.43;;;;;;;;;;5056138;28;20642;-77
2021/03/26 00:34:46;;;;;;;27.73;18.27;;;;;;;;;;5056071;28;20201;-77
2021/03/26 00:37:12;;;;;;;27.23;19.37;;;;;;;;;;5072202;28;20184;-78
2021/03/26 00:39:37;;;;;;;26.47;18.47;;;;;;;;;;5056029;28;20241;-77
2021/03/26 00:42:04;;;;;;;31.13;19.23;;;;;;;;;;5056220;28;20185;-78
2021/03/26 00:44:30;;;;;;;30.70;18.87;;;;;;;;;;5072508;28;20566;-78
2021/03/26 00:46:55;;;;;;;27.37;17.70;;;;;;;;;;5056074;28;20231;-79
2021/03/26 00:49:21;;;;;;;30.13;19.37;;;;;;;;;;5056068;28;20219;-79
2021/03/26 00:51:47;;;;;;;26.63;18.30;;;;;;;;;;5073534;28;20230;-76
2021/03/26 00:54:15;;;;;;;32.60;21.13;;;;;;;;;;5055583;28;20176;-77
2021/03/26 00:56:42;;;;;;;36.20;23.00;;;;;;;;;;5072477;28;20194;-77
2021/03/26 00:59:07;;;;;;;36.80;21.17;;;;;;;;;;5055769;28;20701;-76
2021/03/26 01:01:33;;;;;;;32.00;21.93;;;;;;;;;;5055982;28;20215;-76
2021/03/26 01:03:59;;;;;;;34.37;22.33;;;;;;;;;;5071512;28;20192;-77
2021/03/26 01:06:25;;;;;;;41.30;22.60;;;;;;;;;;5054795;28;20305;-77
2021/03/26 01:08:51;;;;;;;32.60;22.20;;;;;;;;;;5055183;28;20176;-78
2021/03/26 01:11:18;;;;;;;34.63;22.00;;;;;;;;;;5072166;28;20256;-77
2021/03/26 01:13:44;;;;;;;32.90;21.63;;;;;;;;;;5072030;28;20232;-78
2021/03/26 01:16:11;;;;;;;31.70;21.37;;;;;;;;;;5055473;28;20255;-77
2021/03/26 01:18:40;;;;;;;31.63;21.07;;;;;;;;;;5072048;28;20174;-77
2021/03/26 01:21:06;;;;;;;35.40;22.50;;;;;;;;;;5072289;28;20231;-76
2021/03/26 01:23:32;;;;;;;31.47;21.07;;;;;;;;;;5055235;28;20188;-77
2021/03/26 01:25:58;;;;;;;33.10;22.17;;;;;;;;;;5071650;28;20201;-77
2021/03/26 01:28:25;;;;;;;32.80;21.37;;;;;;;;;;5071515;28;20204;-76
2021/03/26 01:30:51;;;;;;;32.63;20.93;;;;;;;;;;5071455;28;20185;-79
2021/03/26 01:33:17;;;;;;;33.30;21.10;;;;;;;;;;5071208;28;20188;-78
2021/03/26 01:35:43;;;;;;;32.63;20.93;;;;;;;;;;5071814;28;20201;-78
2021/03/26 01:38:09;;;;;;;30.20;20.47;;;;;;;;;;5055262;28;20193;-79
2021/03/26 01:40:39;;;;;;;32.33;21.60;;;;;;;;;;5071796;28;20173;-77
2021/03/26 01:43:11;;;;;;;32.23;21.33;;;;;;;;;;5071743;28;20177;-77
2021/03/26 01:45:37;;;;;;;32.77;21.23;;;;;;;;;;5071824;28;20197;-77
2021/03/26 01:48:03;;;;;;;36.60;21.73;;;;;;;;;;5071451;28;20208;-79
2021/03/26 01:50:29;;;;;;;37.50;21.97;;;;;;;;;;5070912;28;20201;-77
2021/03/26 01:52:56;;;;;;;34.10;21.93;;;;;;;;;;5071698;28;20204;-79
2021/03/26 01:55:23;;;;;;;33.33;21.33;;;;;;;;;;5054380;28;20243;-77
2021/03/26 01:57:49;;;;;;;33.40;21.33;;;;;;;;;;5071450;28;20670;-79
2021/03/26 02:00:15;;;;;;;34.23;21.77;;;;;;;;;;5054258;28;20539;-79
2021/03/26 02:02:41;;;;;;;36.97;22.63;;;;;;;;;;5071407;28;20561;-77
2021/03/26 02:05:08;;;;;;;33.90;22.27;;;;;;;;;;5071063;28;20215;-78
2021/03/26 02:07:34;;;;;;;38.47;23.97;;;;;;;;;;5071335;28;20203;-77
2021/03/26 02:10:00;;;;;;;35.97;22.70;;;;;;;;;;5054546;28;20561;-76
2021/03/26 02:12:27;;;;;;;39.50;24.03;;;;;;;;;;5071627;28;20589;-77
2021/03/26 02:14:57;;;;;;;34.50;21.87;;;;;;;;;;5054407;28;20229;-80
2021/03/26 02:17:24;;;;;;;35.70;22.27;;;;;;;;;;5071415;28;20272;-77
2021/03/26 02:19:52;;;;;;;36.23;22.87;;;;;;;;;;5054616;28;20184;-78
2021/03/26 02:22:18;;;;;;;36.57;23.43;;;;;;;;;;5054558;28;20268;-77
2021/03/26 02:24:44;;;;;;;37.87;23.20;;;;;;;;;;5054409;28;20237;-78
2021/03/26 02:27:21;;;;;;;34.97;22.97;;;;;;;;;;5054632;28;20235;-77
2021/03/26 02:29:47;;;;;;;37.73;22.97;;;;;;;;;;5071709;28;20218;-76
2021/03/26 02:32:25;;;;;;;33.77;22.03;;;;;;;;;;5071991;28;20177;-78
2021/03/26 02:35:10;;;;;;;33.47;21.73;;;;;;;;;;5072450;28;20207;-77
2021/03/26 02:37:36;;;;;;;35.53;21.47;;;;;;;;;;5071407;28;20650;-78
2021/03/26 02:40:03;;;;;;;36.07;22.20;;;;;;;;;;5054843;28;20188;-78
2021/03/26 02:42:31;;;;;;;33.77;22.17;;;;;;;;;;5054470;28;20181;-77
2021/03/26 02:45:11;;;;;;;34.43;21.93;;;;;;;;;;5071636;28;20249;-77
2021/03/26 02:47:42;;;;;;;35.27;22.47;;;;;;;;;;5071148;28;20208;-76
2021/03/26 02:50:10;;;;;;;37.10;23.63;;;;;;;;;;5071497;28;20551;-79
2021/03/26 02:52:38;;;;;;;37.73;23.53;;;;;;;;;;5054693;28;20181;-77
2021/03/26 02:55:22;;;;;;;34.97;22.30;;;;;;;;;;5054382;28;20202;-77
2021/03/26 02:57:54;;;;;;;36.03;22.03;;;;;;;;;;5070959;28;20534;-78
2021/03/26 03:00:26;;;;;;;33.50;22.23;;;;;;;;;;5072747;28;20246;-79
2021/03/26 03:02:54;;;;;;;33.70;22.00;;;;;;;;;;5074331;28;20268;-78
2021/03/26 03:05:28;;;;;;;33.33;20.57;;;;;;;;;;5074974;23;20313;-77
2021/03/26 03:07:57;;;;;;;34.70;21.43;;;;;;;;;;5021367;28;20284;-77
2021/03/26 03:10:26;;;;;;;31.97;21.13;;;;;;;;;;5036787;28;20264;-77
2021/03/26 03:12:52;;;;;;;34.73;22.00;;;;;;;;;;5028739;28;20188;-78
2021/03/26 03:15:18;;;;;;;33.73;22.37;;;;;;;;;;5020460;28;20283;-77
2021/03/26 03:18:03;;;;;;;31.57;21.33;;;;;;;;;;5054784;28;20670;-77
2021/03/26 03:20:32;;;;;;;37.33;22.67;;;;;;;;;;5054988;28;20516;-78
2021/03/26 03:23:16;;;;;;;36.53;22.03;;;;;;;;;;5053703;28;20540;-77
2021/03/26 03:25:42;;;;;;;31.50;21.40;;;;;;;;;;5054260;28;20209;-77
2021/03/26 03:28:14;;;;;;;34.13;21.47;;;;;;;;;;5028538;28;20215;-77
2021/03/26 03:30:50;;;;;;;33.43;21.93;;;;;;;;;;5053349;28;20240;-77
2021/03/26 03:33:23;;;;;;;30.17;20.33;;;;;;;;;;5028309;28;20182;-77
2021/03/26 03:35:51;;;;;;;40.43;23.50;;;;;;;;;;5054513;28;20205;-78
2021/03/26 03:38:23;;;;;;;37.27;22.43;;;;;;;;;;5036711;28;20186;-77
2021/03/26 03:41:07;;;;;;;37.40;22.60;;;;;;;;;;5046824;28;20691;-79
2021/03/26 03:43:39;;;;;;;35.13;22.50;;;;;;;;;;5034373;28;20198;-77
2021/03/26 03:46:19;;;;;;;37.73;23.63;;;;;;;;;;5033002;28;20191;-76
2021/03/26 03:48:48;;;;;;;38.43;23.10;;;;;;;;;;5020446;28;20190;-77
2021/03/26 03:51:18;;;;;;;40.00;24.60;;;;;;;;;;5042207;28;20225;-78
2021/03/26 03:53:58;;;;;;;40.43;23.37;;;;;;;;;;5032833;28;20274;-77
2021/03/26 03:56:27;;;;;;;43.73;24.30;;;;;;;;;;5032944;28;20194;-78
2021/03/26 03:58:55;;;;;;;44.97;25.53;;;;;;;;;;5034149;28;20232;-77
2021/03/26 04:01:40;;;;;;;41.97;25.87;;;;;;;;;;5032856;28;20174;-77
2021/03/26 04:04:08;;;;;;;39.87;24.73;;;;;;;;;;5016272;28;20631;-77
2021/03/26 04:06:39;;;;;;;43.60;25.80;;;;;;;;;;5034749;28;20563;-77
2021/03/26 04:09:13;;;;;;;39.70;25.37;;;;;;;;;;5032859;28;20208;-77
2021/03/26 04:11:49;;;;;;;44.80;25.47;;;;;;;;;;5016552;28;20183;-77
2021/03/26 04:14:22;;;;;;;49.57;26.63;;;;;;;;;;5032057;28;20202;-77
2021/03/26 04:16:53;;;;;;;47.30;26.00;;;;;;;;;;5032653;28;20273;-77
2021/03/26 04:19:21;;;;;;;46.17;26.97;;;;;;;;;;5032259;28;20683;-77
2021/03/26 04:21:47;;;;;;;44.27;25.60;;;;;;;;;;5032496;28;20202;-77
2021/03/26 04:24:17;;;;;;;45.83;27.23;;;;;;;;;;5032115;28;20182;-77
2021/03/26 04:26:45;;;;;;;46.03;26.47;;;;;;;;;;5032352;28;20317;-78
2021/03/26 04:29:25;;;;;;;45.27;26.60;;;;;;;;;;5018223;28;20182;-77
2021/03/26 04:31:55;;;;;;;45.60;26.67;;;;;;;;;;5043951;28;20242;-77
2021/03/26 04:34:22;;;;;;;44.63;26.40;;;;;;;;;;5035581;28;20178;-77
2021/03/26 04:37:07;;;;;;;43.07;26.63;;;;;;;;;;5035473;28;20223;-77
2021/03/26 04:39:38;;;;;;;39.77;25.17;;;;;;;;;;5053434;28;20175;-78
2021/03/26 04:42:08;;;;;;;44.47;25.80;;;;;;;;;;5035379;28;20231;-78
2021/03/26 04:44:43;;;;;;;46.10;27.17;;;;;;;;;;5052057;28;20182;-77
2021/03/26 04:47:17;;;;;;;49.00;28.00;;;;;;;;;;5051818;28;20693;-79
2021/03/26 04:49:48;;;;;;;51.13;27.47;;;5.00;99.90;;;;;;5051686;28;20593;-78
2021/03/26 04:52:31;;;;;;;47.70;27.53;;;5.20;99.90;;;;;;5019420;28;20315;-78
2021/03/26 04:55:18;;;;;;;50.60;28.73;;;5.30;99.90;;;;;;5020228;28;20291;-77
2021/03/26 04:58:03;;;;;;;49.87;28.20;;;5.40;99.90;;;;;;5037794;28;20296;-78
2021/03/26 05:00:31;;;;;;;51.83;29.17;;;;;;;;;;5051598;28;20178;-77
2021/03/26 05:02:58;;;;;;;48.93;29.80;;;;;;;;;;5051546;28;20415;-78
2021/03/26 05:05:24;;;;;;;49.63;28.27;;;;;;;;;;5051032;28;20693;-77
2021/03/26 05:07:51;;;;;;;49.97;28.33;;;5.30;99.90;;;;;;5034884;28;20215;-77
2021/03/26 05:10:19;;;;;;;50.07;28.30;;;5.30;99.90;;;;;;5018579;28;20189;-77
2021/03/26 05:12:47;;;;;;;51.50;28.80;;;5.40;99.90;;;;;;5018595;28;20235;-77
2021/03/26 05:15:32;;;;;;;48.83;28.17;;;5.30;99.90;;;;;;5018224;28;20607;-77
2021/03/26 05:18:00;;;;;;;42.73;25.93;;;;;;;;;;5035409;28;20232;-77
2021/03/26 05:20:38;;;;;;;45.27;25.97;;;5.10;99.90;;;;;;5051220;28;20200;-79
2021/03/26 05:23:18;;;;;;;43.87;26.03;;;5.10;99.90;;;;;;5044131;28;20213;-78
2021/03/26 05:25:45;;;;;;;49.87;27.27;;;5.10;99.90;;;;;;5018195;28;20627;-78
2021/03/26 05:28:13;;;;;;;44.27;27.33;;;5.00;99.90;;;;;;5018420;28;20472;-77
2021/03/26 05:30:41;;;;;;;49.57;26.97;;;5.10;99.90;;;;;;5051270;28;20170;-77
2021/03/26 05:33:10;;;;;;;48.27;27.30;;;5.20;99.90;;;;;;5018403;28;20703;-78
2021/03/26 05:36:02;;;;;;;48.30;27.53;;;5.20;99.90;;;;;;5052135;28;20200;-79
2021/03/26 05:38:42;;;;;;;45.87;27.03;;;5.20;99.90;;;;;;5051096;28;20170;-78
2021/03/26 05:41:19;;;;;;;45.80;27.47;;;5.30;99.90;;;;;;5051027;28;20244;-77
2021/03/26 05:44:05;;;;;;;41.13;25.20;;;5.10;99.90;;;;;;5051960;28;20180;-77
2021/03/26 05:47:05;;;;;;;49.90;26.87;;;5.10;99.90;;;;;;5051927;28;20196;-77
2021/03/26 05:49:53;;;;;;;44.30;26.87;;;5.20;99.90;;;;;;5052253;28;20179;-78
2021/03/26 05:52:34;;;;;;;47.43;27.63;;;5.20;99.90;;;;;;5049438;28;20204;-77
2021/03/26 05:55:17;;;;;;;47.67;28.00;;;5.30;99.90;;;;;;5050330;28;20181;-78
2021/03/26 05:57:45;;;;;;;52.00;29.00;;;;;;;;;;5050149;28;20166;-77
2021/03/26 06:00:30;;;;;;;43.70;26.13;;;;;;;;;;5034365;28;20171;-77
2021/03/26 06:03:01;;;;;;;46.13;27.20;;;5.40;99.90;;;;;;5051983;28;20177;-78
2021/03/26 06:05:45;;;;;;;51.33;28.97;;;5.60;99.90;;;;;;5051814;28;20622;-78
2021/03/26 06:09:02;;;;;;;49.47;27.77;;;5.90;99.90;;;;;;5051852;28;20228;-77
2021/03/26 06:11:39;;;;;;;46.87;26.47;;;6.20;99.90;;;;;;5034534;28;20182;-76
2021/03/26 06:14:29;;;;;;;43.90;27.77;;;6.50;99.90;;;;;;5034158;28;20264;-76
2021/03/26 06:17:17;;;;;;;44.67;26.90;;;6.80;99.90;;;;;;5039844;28;20745;-77
2021/03/26 06:20:20;;;;;;;41.20;25.57;;;7.30;99.90;;;;;;5030778;28;20657;-76
2021/03/26 06:23:09;;;;;;;41.27;24.80;;;8.10;99.90;;;;;;5038193;28;20647;-76
2021/03/26 06:26:07;;;;;;;38.90;24.93;;;9.00;99.90;;;;;;5049072;28;20199;-78
2021/03/26 06:28:46;;;;;;;38.43;23.00;;;9.70;99.90;;;;;;5042629;28;20210;-76
2021/03/26 06:31:36;;;;;;;35.77;23.53;;;10.30;99.90;;;;;;5016059;28;20190;-77
2021/03/26 06:34:39;;;;;;;36.73;22.90;;;10.80;99.90;;;;;;5031761;28;20163;-74
2021/03/26 06:37:28;;;;;;;34.43;21.70;;;11.50;99.90;;;;;;5035966;28;20684;-75
2021/03/26 06:39:59;;;;;;;33.97;21.73;;;;;;;;;;5053165;28;20191;-74
2021/03/26 06:42:26;;;;;;;30.53;21.20;;;;;;;;;;5070339;28;20178;-73
2021/03/26 06:44:53;;;;;;;30.43;20.70;;;;;;;;;;5055226;28;20191;-76
2021/03/26 06:47:39;;;;;;;33.80;21.27;;;;;;;;;;5066458;28;20217;-76
2021/03/26 06:50:26;;;;;;;31.40;20.80;;;;;;;;;;5073184;28;20556;-75
2021/03/26 06:52:53;;;;;;;30.23;21.43;;;;;;;;;;5049193;28;20235;-73
2021/03/26 06:55:22;;;;;;;32.13;21.63;;;;;;;;;;5058364;28;20192;-76
2021/03/26 06:58:06;;;;;;;31.47;21.17;;;;;;;;;;5046491;28;20264;-77
2021/03/26 07:00:32;;;;;;;31.07;20.10;;;;;;;;;;5054795;28;20200;-77
2021/03/26 07:03:27;;;;;;;30.10;21.90;;;;;;;;;;5052897;28;20737;-76
2021/03/26 07:06:02;;;;;;;29.80;20.00;;;;;;;;;;4999860;28;20227;-77
2021/03/26 07:08:38;;;;;;;30.50;20.10;;;;;;;;;;5056055;28;20228;-78
2021/03/26 07:11:39;;;;;;;30.40;22.27;;;;;;;;;;5049044;28;20385;-79
2021/03/26 07:14:23;;;;;;;30.13;21.63;;;;;;;;;;5031914;28;20179;-78
2021/03/26 07:16:55;;;;;;;30.03;22.37;;;;;;;;;;5046661;28;20353;-78
2021/03/26 07:19:30;;;;;;;33.70;22.13;;;;;;;;;;5056054;28;20186;-77
2021/03/26 07:22:03;;;;;;;33.63;22.40;;;;;;;;;;5053549;28;20195;-76
2021/03/26 07:24:29;;;;;;;33.03;22.80;;;;;;;;;;5033524;28;20182;-77
2021/03/26 07:26:56;;;;;;;33.63;23.33;;;;;;;;;;5032970;28;20217;-77
2021/03/26 07:29:42;;;;;;;31.57;22.00;;;;;;;;;;5032318;28;20173;-77
2021/03/26 07:32:14;;;;;;;31.97;22.57;;;;;;;;;;5034417;28;20180;-74
2021/03/26 07:34:58;;;;;;;34.50;23.13;;;;;;;;;;5034647;28;20185;-75
2021/03/26 07:37:44;;;;;;;34.57;23.67;;;;;;;;;;5048483;28;20608;-75
2021/03/26 07:40:28;;;;;;;36.63;23.17;;;;;;;;;;5056939;28;20206;-74
2021/03/26 07:42:54;;;;;;;33.57;23.07;;;;;;;;;;5061528;28;20189;-75
2021/03/26 07:45:23;;;;;;;37.50;23.03;;;;;;;;;;5073810;28;20268;-76
2021/03/26 07:47:58;;;;;;;35.73;23.53;;;;;;;;;;5068597;28;20284;-75
2021/03/26 07:50:37;;;;;;;35.47;23.73;;;;;;;;;;5048752;28;20264;-74
2021/03/26 07:53:21;;;;;;;34.77;22.10;;;;;;;;;;5052350;28;20586;-77
2021/03/26 07:55:47;;;;;;;32.90;21.77;;;;;;;;;;5035598;28;20208;-77
2021/03/26 07:58:32;;;;;;;32.47;21.60;;;;;;;;;;5053632;28;20535;-77
2021/03/26 08:01:17;;;;;;;32.27;22.50;;;;;;;;;;5053949;28;20533;-74
2021/03/26 08:03:52;;;;;;;30.47;22.03;;;;;;;;;;5053376;28;20185;-74
2021/03/26 08:06:34;;;;;;;29.90;20.63;;;;;;;;;;5053691;28;20228;-76
2021/03/26 08:09:03;;;;;;;29.57;20.63;;;;;;;;;;5052331;28;20266;-75
2021/03/26 08:11:49;;;;;;;30.80;21.90;;;;;;;;;;5052421;28;20176;-77
2021/03/26 08:14:33;;;;;;;30.07;19.87;;;;;;;;;;5052201;28;20178;-79
2021/03/26 08:17:02;;;;;;;29.00;20.60;;;;;;;;;;5051697;28;20194;-77
2021/03/26 08:19:28;;;;;;;29.90;20.57;;;;;;;;;;5042703;28;20275;-75
2021/03/26 08:22:03;;;;;;;29.53;19.50;;;;;;;;;;5053527;28;20181;-75
2021/03/26 08:24:48;;;;;;;27.40;18.87;;;;;;;;;;5032939;28;20174;-74
2021/03/26 08:27:25;;;;;;;28.63;19.43;;;;;;;;;;5053094;28;20296;-74
2021/03/26 08:30:03;;;;;;;28.90;18.63;;;;;;;;;;5052122;28;20181;-75
2021/03/26 08:32:29;;;;;;;30.50;19.43;;;;;;;;;;5033349;28;20643;-75
2021/03/26 08:34:58;;;;;;;32.13;19.67;;;;;;;;;;5032746;28;20178;-74
2021/03/26 08:37:24;;;;;;;25.53;17.87;;;;;;;;;;5032036;28;20259;-74
2021/03/26 08:39:54;;;;;;;28.93;19.57;;;;;;;;;;5032870;28;20206;-74
2021/03/26 08:42:25;;;;;;;27.83;19.03;;;;;;;;;;5024010;28;20174;-74
2021/03/26 08:44:58;;;;;;;25.23;17.90;;;;;;;;;;5028710;28;20186;-74
2021/03/26 08:47:38;;;;;;;24.27;17.30;;;;;;;;;;5051582;28;20202;-75
2021/03/26 08:50:04;;;;;;;25.53;17.73;;;;;;;;;;5045276;28;20177;-74
2021/03/26 08:52:43;;;;;;;23.30;16.07;;;;;;;;;;5047403;28;20292;-74
2021/03/26 08:55:18;;;;;;;24.60;16.93;;;;;;;;;;5051324;28;20639;-74
2021/03/26 08:57:44;;;;;;;19.50;13.43;;;;;;;;;;5052894;28;20224;-74
2021/03/26 09:00:22;;;;;;;24.57;15.43;;;;;;;;;;5050035;28;20212;-74
2021/03/26 09:02:51;;;;;;;22.87;14.87;;;;;;;;;;5051341;28;20536;-75
2021/03/26 09:05:23;;;;;;;21.03;14.97;;;;;;;;;;5052717;28;20214;-77
2021/03/26 09:08:04;;;;;;;20.57;14.60;;;;;;;;;;5032765;28;20202;-80
2021/03/26 09:10:56;;;;;;;19.10;12.60;;;;;;;;;;5036046;28;20610;-77
2021/03/26 09:13:41;;;;;;;18.27;12.57;;;;;;;;;;5028647;28;20274;-77
2021/03/26 09:16:07;;;;;;;19.90;12.77;;;;;;;;;;5052114;28;20410;-77
2021/03/26 09:18:41;;;;;;;16.83;11.77;;;;;;;;;;5052992;28;20174;-78
2021/03/26 09:21:26;;;;;;;19.50;11.57;;;;;;;;;;5051471;28;20567;-77
2021/03/26 09:24:12;;;;;;;17.93;12.33;;;;;;;;;;5051215;28;20189;-77
2021/03/26 09:26:48;;;;;;;15.93;11.30;;;;;;;;;;5021778;28;20225;-77
2021/03/26 09:29:34;;;;;;;17.13;10.33;;;;;;;;;;5051576;28;20676;-76
2021/03/26 09:32:07;;;;;;;14.67;8.37;;;;;;;;;;5050809;28;20186;-77
2021/03/26 09:34:34;;;;;;;12.70;8.17;;;;;;;;;;5050946;28;20174;-77
2021/03/26 09:37:06;;;;;;;13.40;7.97;;;;;;;;;;5050094;28;20697;-77
2021/03/26 09:39:32;;;;;;;12.90;8.23;;;;;;;;;;5051788;28;20181;-75
2021/03/26 09:42:04;;;;;;;11.07;7.93;;;;;;;;;;5050814;28;20194;-75
2021/03/26 09:44:32;;;;;;;11.20;8.23;;;;;;;;;;5034951;28;20178;-75
2021/03/26 09:47:00;;;;;;;13.63;9.43;;;;;;;;;;5033924;28;20195;-74
2021/03/26 09:49:39;;;;;;;19.30;10.27;;;;;;;;;;5050466;28;20180;-75
2021/03/26 09:52:08;;;;;;;18.17;10.30;;;;;;;;;;5034025;28;20212;-76
2021/03/26 09:54:41;;;;;;;15.10;11.00;;;;;;;;;;5051614;28;20276;-75
2021/03/26 09:57:26;;;;;;;22.77;12.23;;;;;;;;;;5052118;28;20588;-75
2021/03/26 10:00:11;;;;;;;20.13;12.67;;;;;;;;;;5050707;28;20178;-76
2021/03/26 10:02:55;;;;;;;18.27;13.27;;;;;;;;;;5032005;28;20175;-75
2021/03/26 10:05:27;;;;;;;17.50;12.07;;;;;;;;;;5043689;28;20210;-75
2021/03/26 10:08:06;;;;;;;17.23;12.53;;;;;;;;;;5019156;28;20206;-74
2021/03/26 10:13:03;;;;;;;18.07;13.27;;;;;;;;;;5055218;28;20219;-79
2021/03/26 10:15:32;;;;;;;18.17;13.47;;;;;;;;;;5054746;28;20679;-76
2021/03/26 10:18:00;;;;;;;21.20;13.30;;;;;;;;;;5056319;28;20186;-75
2021/03/26 10:20:35;;;;;;;19.73;14.50;;;;;;;;;;5038537;28;20186;-76
2021/03/26 10:23:03;;;;;;;18.97;13.67;;;;;;;;;;5054945;28;20683;-77
2021/03/26 10:25:30;;;;;;;18.20;14.90;;;;;;;;;;5054428;28;20194;-76
2021/03/26 10:27:58;;;;;;;19.73;14.07;;;;;;;;;;5034362;28;20206;-78
2021/03/26 10:30:34;;;;;;;17.47;13.70;;;;;;;;;;5051434;28;20231;-75
2021/03/26 10:33:04;;;;;;;19.80;13.83;;;;;;;;;;5057061;28;20185;-77
2021/03/26 10:35:30;;;;;;;19.27;14.00;;;;;;;;;;5053266;28;20281;-76
2021/03/26 10:38:16;;;;;;;18.20;13.50;;;;;;;;;;5029924;28;20178;-77
2021/03/26 10:40:59;;;;;;;16.47;12.30;;;;;;;;;;5048947;28;20186;-79
2021/03/26 10:43:26;;;;;;;16.77;11.20;;;;;;;;;;5055056;28;20540;-77
2021/03/26 10:46:05;;;;;;;14.87;10.90;;;;;;;;;;5053352;28;20205;-76
2021/03/26 10:48:46;;;;;;;16.17;10.80;;;;;;;;;;5054621;28;20209;-77
2021/03/26 10:51:17;;;;;;;15.73;10.90;;;;;;;;;;5054081;28;20197;-73
2021/03/26 10:53:55;;;;;;;14.87;10.53;;;;;;;;;;5054221;28;20712;-74
2021/03/26 10:56:25;;;;;;;14.47;10.20;;;;;;;;;;5037275;28;20201;-74
2021/03/26 10:58:55;;;;;;;12.37;9.80;;;;;;;;;;5053755;28;20260;-74
2021/03/26 11:01:21;;;;;;;12.60;9.93;;;;;;;;;;5053964;28;20186;-74
2021/03/26 11:03:57;;;;;;;12.33;9.57;;;;;;;;;;5054597;28;20244;-74
2021/03/26 11:06:27;;;;;;;11.87;8.80;;;;;;;;;;5036899;28;20213;-74
2021/03/26 11:08:55;;;;;;;12.17;9.20;;;;;;;;;;5053428;28;20247;-74
2021/03/26 11:11:29;;;;;;;12.00;9.43;;;;;;;;;;5055186;28;20181;-74
2021/03/26 11:14:13;;;;;;;11.87;9.07;;;;;;;;;;5053736;28;20265;-75
2021/03/26 11:16:41;;;;;;;12.47;9.70;;;;;;;;;;5053327;28;20701;-76
2021/03/26 11:19:12;;;;;;;13.50;9.13;;;;;;;;;;5052190;28;20257;-72
2021/03/26 11:21:45;;;;;;;12.17;8.50;;;;;;;;;;5036719;28;20296;-74
2021/03/26 11:24:11;;;;;;;12.73;9.17;;;;;;;;;;5036375;28;20257;-75
2021/03/26 11:26:37;;;;;;;13.47;9.60;;;;;;;;;;5053201;28;20206;-76
2021/03/26 11:29:05;;;;;;;13.70;9.67;;;;;;;;;;5054578;28;20584;-76
2021/03/26 11:31:37;;;;;;;13.53;8.87;;;;;;;;;;5045099;28;20189;-75
2021/03/26 11:34:25;;;;;;;14.33;10.33;;;;;;;;;;5058437;28;20192;-76
2021/03/26 11:36:52;;;;;;;12.77;9.20;;;;;;;;;;5055547;28;20570;-77
2021/03/26 11:39:23;;;;;;;10.27;8.43;;;;;;;;;;5045779;28;20302;-76
2021/03/26 11:41:49;;;;;;;12.03;9.00;;;;;;;;;;5053435;28;20240;-75
2021/03/26 11:44:15;;;;;;;15.63;8.93;;;;;;;;;;5048408;28;20182;-75
2021/03/26 11:46:42;;;;;;;13.33;8.60;;;;;;;;;;5052593;28;20285;-74
2021/03/26 11:49:18;;;;;;;13.10;8.77;;;;;;;;;;5038794;28;20764;-76
2021/03/26 11:51:44;;;;;;;12.40;8.17;;;;;;;;;;5052608;28;20189;-75
2021/03/26 11:54:12;;;;;;;13.20;8.47;;;;;;;;;;5060412;28;20183;-75
2021/03/26 11:56:38;;;;;;;13.03;8.00;;;;;;;;;;5044856;28;20201;-75
2021/03/26 11:59:23;;;;;;;12.47;8.20;;;;;;;;;;5053988;28;20700;-77
2021/03/26 12:02:09;;;;;;;13.70;8.17;;;;;;;;;;5067411;28;20181;-75
2021/03/26 12:04:37;;;;;;;13.60;8.17;;;;;;;;;;5009528;28;20595;-76
2021/03/26 12:07:03;;;;;;;11.37;7.77;;;;;;;;;;5033085;28;20218;-76
2021/03/26 12:09:30;;;;;;;9.80;7.73;;;;;;;;;;5063593;28;20201;-76
2021/03/26 12:12:01;;;;;;;12.67;8.03;;;;;;;;;;5053998;28;20532;-75
2021/03/26 12:14:33;;;;;;;12.63;8.23;;;;;;;;;;5052457;28;20182;-75
2021/03/26 12:17:01;;;;;;;11.30;7.73;;;;;;;;;;5053660;28;20670;-75
2021/03/26 12:19:27;;;;;;;11.53;7.57;;;;;;;;;;5053870;28;20181;-75
2021/03/26 12:22:12;;;;;;;11.97;7.87;;;;;;;;;;5052425;28;20175;-75
2021/03/26 12:24:39;;;;;;;11.10;8.00;;;;;;;;;;5053582;28;20179;-75
2021/03/26 12:27:08;;;;;;;10.20;7.10;;;;;;;;;;5058788;28;20604;-75
2021/03/26 12:29:53;;;;;;;9.63;7.10;;;;;;;;;;5052397;28;20178;-76
2021/03/26 12:32:25;;;;;;;10.83;6.83;;;;;;;;;;5052419;28;20308;-76
2021/03/26 12:34:55;;;;;;;10.90;6.70;;;;;;;;;;5052494;28;20175;-76
2021/03/26 12:37:23;;;;;;;10.10;6.53;;;;;;;;;;5035055;28;20174;-76
2021/03/26 12:39:49;;;;;;;9.20;6.97;;;;;;;;;;5036560;28;20223;-77
2021/03/26 12:42:22;;;;;;;10.53;7.50;;;;;;;;;;5027825;28;20648;-77
2021/03/26 12:44:57;;;;;;;11.83;7.40;;;;;;;;;;5036449;28;20186;-77
2021/03/26 12:47:32;;;;;;;9.77;7.50;;;;;;;;;;5053266;28;20223;-77
2021/03/26 12:50:01;;;;;;;13.00;8.37;;;;;;;;;;5032642;28;20193;-82
2021/03/26 12:52:30;;;;;;;13.97;8.53;;;;;;;;;;5029041;28;20220;-78
2021/03/26 12:55:03;;;;;;;12.97;7.83;;;;;;;;;;5053558;28;20647;-74
2021/03/26 12:57:31;;;;;;;10.03;8.13;;;;;;;;;;5053498;28;20182;-72
2021/03/26 13:00:02;;;;;;;11.80;8.00;;;;;;;;;;5051607;28;20249;-72
2021/03/26 13:02:32;;;;;;;11.77;7.30;;;;;;;;;;5051284;28;20166;-74
2021/03/26 13:05:18;;;;;;;12.17;8.20;;;;;;;;;;5051174;28;20177;-72
2021/03/26 13:08:03;;;;;;;11.93;8.03;;;;;;;;;;5053468;28;20695;-73
2021/03/26 13:10:40;;;;;;;11.43;7.03;;;;;;;;;;5059754;28;20209;-73
2021/03/26 13:13:12;;;;;;;13.03;8.77;;;;;;;;;;5060030;28;20654;-72
2021/03/26 13:15:38;;;;;;;10.20;7.80;;;;;;;;;;5048362;28;20209;-72
2021/03/26 13:18:13;;;;;;;11.20;7.23;;;;;;;;;;5038562;28;20186;-74
2021/03/26 13:21:05;;;;;;;10.70;7.80;;;;;;;;;;5048251;28;20642;-73
2021/03/26 13:23:32;;;;;;;12.00;8.47;;;;;;;;;;5056715;23;20234;-78
2021/03/26 13:25:58;;;;;;;13.37;8.00;;;;;;;;;;5018185;28;20260;-78
2021/03/26 13:28:26;;;;;;;12.27;8.10;;;;;;;;;;5050388;28;20186;-79
2021/03/26 13:31:02;;;;;;;10.37;8.13;;;;;;;;;;5017786;28;20189;-78
2021/03/26 13:33:51;;;;;;;11.80;8.33;;;;;;;;;;5010618;28;20194;-80
2021/03/26 13:36:23;;;;;;;11.97;8.70;;;;;;;;;;4994120;28;20268;-81
2021/03/26 13:38:54;;;;;;;10.33;7.07;;;;;;;;;;5026490;28;20277;-81
2021/03/26 13:41:31;;;;;;;9.70;7.87;;;;;;;;;;5018688;28;20283;-81
2021/03/26 13:44:27;;;;;;;11.97;7.53;;;;;;;;;;5036144;28;20202;-81
2021/03/26 13:47:00;;;;;;;11.90;7.47;;;;;;;;;;5033846;28;20258;-82
2021/03/26 13:49:26;;;;;;;11.40;7.57;;;;;;;;;;5020255;28;20210;-79
2021/03/26 13:51:55;;;;;;;12.40;8.27;;;;;;;;;;5035943;28;20178;-80
2021/03/26 13:54:21;;;;;;;10.53;8.37;;;;;;;;;;5009013;28;20202;-81
2021/03/26 13:56:47;;;;;;;12.53;7.83;;;;;;;;;;5012963;28;20182;-80
2021/03/26 13:59:13;;;;;;;12.03;7.53;;;;;;;;;;4997953;28;20609;-79
2021/03/26 14:01:48;;;;;;;10.70;7.93;;;;;;;;;;5012929;28;20182;-80
2021/03/26 14:04:17;;;;;;;11.50;7.97;;;;;;;;;;4998904;28;20234;-80
2021/03/26 14:06:46;;;;;;;14.57;7.83;;;;;;;;;;5000579;28;20274;-79
2021/03/26 14:09:28;;;;;;;11.17;7.93;;;;;;;;;;5011875;28;20300;-81
2021/03/26 14:12:02;;;;;;;12.37;8.63;;;;;;;;;;5021122;28;20187;-80
2021/03/26 14:15:04;;;;;;;12.47;7.90;;;;;;;;;;5024307;28;20194;-79
2021/03/26 14:17:39;;;;;;;11.47;8.23;;;;;;;;;;4982588;28;20207;-79
2021/03/26 14:20:05;;;;;;;10.37;7.10;;;;;;;;;;5008343;28;20277;-80
2021/03/26 14:22:41;;;;;;;10.13;7.20;;;;;;;;;;5042339;28;20663;-80
2021/03/26 14:25:08;;;;;;;11.63;6.90;;;;;;;;;;5023281;28;20211;-80
2021/03/26 14:27:37;;;;;;;10.60;6.90;;;;;;;;;;5024006;28;20761;-80
2021/03/26 14:30:06;;;;;;;10.93;6.90;;;;;;;;;;5042220;28;20635;-80
2021/03/26 14:32:38;;;;;;;9.53;6.17;;;;;;;;;;5030505;28;20186;-79
2021/03/26 14:35:06;;;;;;;8.10;5.70;;;;;;;;;;5025284;28;20182;-80
2021/03/26 14:37:33;;;;;;;7.70;5.60;;;;;;;;;;5026031;28;20238;-80
2021/03/26 14:40:07;;;;;;;8.77;5.50;;;;;;;;;;5016268;28;20509;-80
2021/03/26 14:42:40;;;;;;;7.37;5.43;;;;;;;;;;5016496;28;20189;-80
2021/03/26 14:45:07;;;;;;;9.43;4.90;;;;;;;;;;5000522;28;20179;-80